createdAt,value
2023-02-06T00:01:35.820Z,6.53
2023-02-06T00:04:04.792Z,6.28
2023-02-06T00:06:33.486Z,6.50
2023-02-06T00:09:02.407Z,6.13
2023-02-06T00:11:32.677Z,6.10
2023-02-06T00:14:01.417Z,6.30
2023-02-06T00:16:31.220Z,6.25
2023-02-06T00:19:00.580Z,6.18
2023-02-06T00:21:30.093Z,6.28
2023-02-06T00:24:00.595Z,5.82
2023-02-06T00:26:31.980Z,6.25
2023-02-06T00:29:00.674Z,6.30
2023-02-06T00:31:29.460Z,6.10
2023-02-06T00:33:58.064Z,6.20
2023-02-06T00:36:26.810Z,6.18
2023-02-06T00:38:55.451Z,5.80
2023-02-06T00:41:24.392Z,5.75
2023-02-06T00:43:54.469Z,6.40
2023-02-06T00:46:23.114Z,5.53
2023-02-06T00:48:51.676Z,6.10
2023-02-06T00:51:20.209Z,6.43
2023-02-06T00:53:51.026Z,6.18
2023-02-06T00:56:19.925Z,6.10
2023-02-06T00:58:48.536Z,5.88
2023-02-06T01:01:18.805Z,6.00
2023-02-06T01:03:47.445Z,6.05
2023-02-06T01:06:16.069Z,6.53
2023-02-06T01:08:44.704Z,6.20
2023-02-06T01:11:14.230Z,5.93
2023-02-06T01:13:42.931Z,6.25
2023-02-06T01:16:12.278Z,6.15
2023-02-06T01:18:42.455Z,6.18
2023-02-06T01:21:11.397Z,6.22
2023-02-06T01:23:40.548Z,5.85
2023-02-06T01:26:09.877Z,5.97
2023-02-06T01:28:38.770Z,6.18
2023-02-06T01:31:13.114Z,5.68
2023-02-06T01:33:43.263Z,5.90
2023-02-06T01:36:12.098Z,6.22
2023-02-06T01:38:41.154Z,5.82
2023-02-06T01:41:10.115Z,6.10
2023-02-06T01:43:41.081Z,6.10
2023-02-06T01:46:10.024Z,6.00
2023-02-06T01:48:41.043Z,5.97
2023-02-06T01:51:13.542Z,6.28
2023-02-06T01:53:42.387Z,6.22
2023-02-06T01:56:11.188Z,6.13
2023-02-06T01:58:43.278Z,6.25
2023-02-06T02:01:12.487Z,6.20
2023-02-06T02:03:42.591Z,6.00
2023-02-06T02:06:14.500Z,6.38
2023-02-06T02:08:45.421Z,6.00
2023-02-06T02:11:18.890Z,5.75
2023-02-06T02:13:47.830Z,5.90
2023-02-06T02:16:19.835Z,5.70
2023-02-06T02:19:00.858Z,6.85
2023-02-06T02:22:11.883Z,6.05
2023-02-06T02:25:07.463Z,6.45
2023-02-06T02:28:11.028Z,6.07
2023-02-06T02:30:57.853Z,6.47
2023-02-06T02:34:29.071Z,6.43
2023-02-06T02:37:01.727Z,6.30
2023-02-06T02:39:34.629Z,6.75
2023-02-06T02:42:11.156Z,6.35
2023-02-06T02:44:43.445Z,6.10
2023-02-06T02:47:13.672Z,6.85
2023-02-06T02:49:42.305Z,6.20
2023-02-06T02:52:12.345Z,6.93
2023-02-06T02:54:41.209Z,6.15
2023-02-06T02:57:14.370Z,6.60
2023-02-06T02:59:45.743Z,6.55
2023-02-06T03:02:17.341Z,6.82
2023-02-06T03:04:49.186Z,6.13
2023-02-06T03:07:26.154Z,6.90
2023-02-06T03:10:01.963Z,6.15
2023-02-06T03:12:39.294Z,6.30
2023-02-06T03:15:13.594Z,6.35
2023-02-06T03:17:45.379Z,6.03
2023-02-06T03:20:14.099Z,6.53
2023-02-06T03:22:44.237Z,6.75
2023-02-06T03:25:14.932Z,6.32
2023-02-06T03:27:43.672Z,6.30
2023-02-06T03:30:13.746Z,6.03
2023-02-06T03:32:44.567Z,6.20
2023-02-06T03:35:15.229Z,6.60
2023-02-06T03:37:45.426Z,6.65
2023-02-06T03:40:14.239Z,6.22
2023-02-06T03:42:46.249Z,5.82
2023-02-06T03:45:18.028Z,6.13
2023-02-06T03:47:46.696Z,6.15
2023-02-06T03:50:16.646Z,6.38
2023-02-06T03:52:48.982Z,6.25
2023-02-06T03:55:21.299Z,6.65
2023-02-06T03:57:52.951Z,6.15
2023-02-06T04:00:21.978Z,6.85
2023-02-06T04:02:50.702Z,6.57
2023-02-06T04:05:19.651Z,6.30
2023-02-06T04:07:50.154Z,6.40
2023-02-06T04:10:19.007Z,6.65
2023-02-06T04:12:47.622Z,6.25
2023-02-06T04:15:16.670Z,6.95
2023-02-06T04:17:58.792Z,6.93
2023-02-06T04:20:28.882Z,6.75
2023-02-06T04:22:58.870Z,6.82
2023-02-06T04:25:27.533Z,6.68
2023-02-06T04:27:56.451Z,6.70
2023-02-06T04:30:25.086Z,6.35
2023-02-06T04:32:53.760Z,6.22
2023-02-06T04:35:22.471Z,7.18
2023-02-06T04:37:51.211Z,6.10
2023-02-06T04:40:21.506Z,6.65
2023-02-06T04:42:50.096Z,6.78
2023-02-06T04:45:19.001Z,6.97
2023-02-06T04:47:49.726Z,6.45
2023-02-06T04:50:18.456Z,6.68
2023-02-06T04:52:47.175Z,7.03
2023-02-06T04:55:15.776Z,6.93
2023-02-06T04:57:45.913Z,6.90
2023-02-06T05:00:16.639Z,7.57
2023-02-06T05:02:45.524Z,7.20
2023-02-06T05:05:14.977Z,7.93
2023-02-06T05:07:43.753Z,8.27
2023-02-06T05:10:12.502Z,7.15
2023-02-06T05:12:41.038Z,7.53
2023-02-06T05:15:12.048Z,7.38
2023-02-06T05:17:40.728Z,7.40
2023-02-06T05:20:10.228Z,7.78
2023-02-06T05:22:38.975Z,7.93
2023-02-06T05:25:08.425Z,7.80
2023-02-06T05:27:36.992Z,7.78
2023-02-06T05:30:06.510Z,8.15
2023-02-06T05:32:36.501Z,7.55
2023-02-06T05:35:05.369Z,7.70
2023-02-06T05:37:34.260Z,8.13
2023-02-06T05:40:02.838Z,8.30
2023-02-06T05:42:31.417Z,8.23
2023-02-06T05:45:00.001Z,8.07
2023-02-06T05:47:28.616Z,8.85
2023-02-06T05:49:58.874Z,7.90
2023-02-06T05:52:27.875Z,7.70
2023-02-06T05:54:56.521Z,8.52
2023-02-06T05:57:25.039Z,8.27
2023-02-06T05:59:53.660Z,8.23
2023-02-06T06:02:22.272Z,8.52
2023-02-06T06:04:50.908Z,8.80
2023-02-06T06:07:20.976Z,8.52
2023-02-06T06:09:49.495Z,8.85
2023-02-06T06:12:18.041Z,8.77
2023-02-06T06:14:46.639Z,8.20
2023-02-06T06:17:15.380Z,8.50
2023-02-06T06:19:44.053Z,8.70
2023-02-06T06:22:13.531Z,8.45
2023-02-06T06:24:43.457Z,7.95
2023-02-06T06:27:12.025Z,7.80
2023-02-06T06:29:40.602Z,8.30
2023-02-06T06:32:09.215Z,7.80
2023-02-06T06:34:37.876Z,7.85
2023-02-06T06:37:06.539Z,8.05
2023-02-06T06:39:35.133Z,8.13
2023-02-06T06:42:05.396Z,8.18
2023-02-06T06:44:34.239Z,8.60
2023-02-06T06:47:02.928Z,9.00
2023-02-06T06:49:31.464Z,8.27
2023-02-06T06:52:00.151Z,8.02
2023-02-06T06:54:28.914Z,8.10
2023-02-06T06:56:57.593Z,8.00
2023-02-06T06:59:28.220Z,8.27
2023-02-06T07:01:57.563Z,8.40
2023-02-06T07:04:29.692Z,8.93
2023-02-06T07:06:59.156Z,8.85
2023-02-06T07:09:28.087Z,8.95
2023-02-06T07:11:56.691Z,9.27
2023-02-06T07:14:26.987Z,10.10
2023-02-06T07:16:56.351Z,12.82
2023-02-06T07:19:24.944Z,14.27
2023-02-06T07:21:53.461Z,15.70
2023-02-06T07:24:22.841Z,15.88
2023-02-06T07:26:51.414Z,17.10
2023-02-06T07:29:20.262Z,17.52
2023-02-06T07:31:50.731Z,17.10
2023-02-06T07:34:19.350Z,17.60
2023-02-06T07:36:48.139Z,17.25
2023-02-06T07:39:16.911Z,16.88
2023-02-06T07:41:49.176Z,16.85
2023-02-06T07:44:17.830Z,16.08
2023-02-06T07:46:46.833Z,16.70
2023-02-06T07:49:17.311Z,16.02
2023-02-06T07:51:46.774Z,14.93
2023-02-06T07:54:15.724Z,15.88
2023-02-06T07:56:44.458Z,16.10
2023-02-06T07:59:13.504Z,15.35
2023-02-06T08:01:42.132Z,15.40
2023-02-06T08:04:11.551Z,15.40
2023-02-06T08:06:43.663Z,15.90
2023-02-06T08:09:13.394Z,15.27
2023-02-06T08:11:42.318Z,15.68
2023-02-06T08:14:11.370Z,15.75
2023-02-06T08:16:40.429Z,15.20
2023-02-06T08:19:11.599Z,15.23
2023-02-06T08:21:40.239Z,14.60
2023-02-06T08:24:12.451Z,14.85
2023-02-06T08:26:41.290Z,14.38
2023-02-06T08:29:10.646Z,14.38
2023-02-06T08:31:41.139Z,13.95
2023-02-06T08:34:12.348Z,14.13
2023-02-06T08:36:43.105Z,13.75
2023-02-06T08:39:14.315Z,15.07
2023-02-06T08:41:44.359Z,14.75
2023-02-06T08:44:16.174Z,13.52
2023-02-06T08:46:45.617Z,14.13
2023-02-06T08:49:15.741Z,13.90
2023-02-06T08:51:44.567Z,13.60
2023-02-06T08:54:16.006Z,13.82
2023-02-06T08:56:44.594Z,13.93
2023-02-06T08:59:14.009Z,13.82
2023-02-06T09:01:42.879Z,13.75
2023-02-06T09:04:13.151Z,13.63
2023-02-06T09:06:45.406Z,13.20
2023-02-06T09:09:15.834Z,13.05
2023-02-06T09:11:44.515Z,13.45
2023-02-06T09:14:16.741Z,13.20
2023-02-06T09:16:45.651Z,13.05
2023-02-06T09:19:14.587Z,12.95
2023-02-06T09:21:43.679Z,13.07
2023-02-06T09:24:12.509Z,13.95
2023-02-06T09:26:58.439Z,13.80
2023-02-06T09:29:31.634Z,12.88
2023-02-06T09:32:00.928Z,12.20
2023-02-06T09:34:30.002Z,13.32
2023-02-06T09:36:58.766Z,12.45
2023-02-06T09:39:27.476Z,12.13
2023-02-06T09:42:01.371Z,12.80
2023-02-06T09:44:33.678Z,12.52
2023-02-06T09:47:06.574Z,12.07
2023-02-06T09:49:38.084Z,12.45
2023-02-06T09:52:45.964Z,12.48
2023-02-06T09:55:19.898Z,13.07
2023-02-06T09:57:53.183Z,12.15
2023-02-06T10:00:33.068Z,11.82
2023-02-06T10:03:17.260Z,12.05
2023-02-06T10:05:51.130Z,13.20
2023-02-06T10:08:26.795Z,12.18
2023-02-06T10:10:56.977Z,11.15
2023-02-06T10:13:32.026Z,11.68
2023-02-06T10:16:05.593Z,11.80
2023-02-06T10:18:37.472Z,11.15
2023-02-06T10:21:12.026Z,11.90
2023-02-06T10:23:47.184Z,10.88
2023-02-06T10:26:18.386Z,11.32
2023-02-06T10:28:50.782Z,11.68
2023-02-06T10:32:15.186Z,10.75
2023-02-06T10:34:56.804Z,11.25
2023-02-06T10:37:39.496Z,11.32
2023-02-06T10:40:30.182Z,11.38
2023-02-06T10:43:02.303Z,10.77
2023-02-06T10:45:45.186Z,10.65
2023-02-06T10:48:24.178Z,11.20
2023-02-06T10:50:55.518Z,10.63
2023-02-06T10:53:27.835Z,11.55
2023-02-06T10:55:58.985Z,10.63
2023-02-06T10:58:30.453Z,11.43
2023-02-06T11:01:01.240Z,11.20
2023-02-06T11:03:31.943Z,10.82
2023-02-06T11:06:00.771Z,11.70
2023-02-06T11:08:31.204Z,10.38
2023-02-06T11:11:00.095Z,10.13
2023-02-06T11:13:30.123Z,10.77
2023-02-06T11:16:03.846Z,10.32
2023-02-06T11:18:36.274Z,10.35
2023-02-06T11:21:05.302Z,10.65
2023-02-06T11:23:35.365Z,10.32
2023-02-06T11:26:14.003Z,9.82
2023-02-06T11:28:54.659Z,10.82
2023-02-06T11:31:41.457Z,10.35
2023-02-06T11:34:24.052Z,9.95
2023-02-06T11:36:54.263Z,10.82
2023-02-06T11:39:27.755Z,10.02
2023-02-06T11:42:04.790Z,10.05
2023-02-06T11:44:40.330Z,9.50
2023-02-06T11:47:29.754Z,11.02
2023-02-06T11:49:58.974Z,9.93
2023-02-06T11:52:32.196Z,10.15
2023-02-06T11:55:03.300Z,9.88
2023-02-06T11:57:33.822Z,9.55
2023-02-06T12:00:05.752Z,10.15
2023-02-06T12:02:37.702Z,9.43
2023-02-06T12:05:13.231Z,9.40
2023-02-06T12:07:44.347Z,9.25
2023-02-06T12:10:15.919Z,8.93
2023-02-06T12:12:47.187Z,8.90
2023-02-06T12:15:43.728Z,8.70
2023-02-06T12:18:14.026Z,9.55
2023-02-06T12:20:51.087Z,9.55
2023-02-06T12:23:23.796Z,9.55
2023-02-06T12:25:55.509Z,8.88
2023-02-06T12:28:26.414Z,9.23
2023-02-06T12:30:57.868Z,9.45
2023-02-06T12:33:34.228Z,8.98
2023-02-06T12:36:06.335Z,9.43
2023-02-06T12:38:42.967Z,9.38
2023-02-06T12:41:32.863Z,9.32
2023-02-06T12:44:04.274Z,9.18
2023-02-06T12:46:33.153Z,8.27
2023-02-06T12:49:07.846Z,9.48
2023-02-06T12:51:40.647Z,8.60
2023-02-06T12:54:14.783Z,8.82
2023-02-06T12:56:46.422Z,8.80
2023-02-06T12:59:58.248Z,8.70
2023-02-06T13:02:49.503Z,8.63
2023-02-06T13:05:30.842Z,8.68
2023-02-06T13:08:07.097Z,8.90
2023-02-06T13:10:36.041Z,7.68
2023-02-06T13:13:05.077Z,8.25
2023-02-06T13:15:38.885Z,8.43
2023-02-06T13:18:58.783Z,8.10
2023-02-06T13:21:29.839Z,8.57
2023-02-06T13:24:19.258Z,8.52
2023-02-06T13:27:12.054Z,8.35
2023-02-06T13:29:42.909Z,8.15
2023-02-06T13:32:44.993Z,8.68
2023-02-06T13:35:28.297Z,8.10
2023-02-06T13:38:29.655Z,8.95
2023-02-06T13:41:30.939Z,7.57
2023-02-06T13:44:02.062Z,7.95
2023-02-06T13:47:28.430Z,7.68
2023-02-06T13:50:36.519Z,7.65
2023-02-06T13:53:33.747Z,7.13
2023-02-06T13:56:18.999Z,7.82
2023-02-06T13:58:48.952Z,7.88
2023-02-06T14:01:21.192Z,8.25
2023-02-06T14:03:51.528Z,7.97
2023-02-06T14:06:45.749Z,7.88
2023-02-06T14:09:40.016Z,8.77
2023-02-06T14:12:35.703Z,8.43
2023-02-06T14:15:24.707Z,7.95
2023-02-06T14:18:09.057Z,7.75
2023-02-06T14:20:47.640Z,7.80
2023-02-06T14:23:25.839Z,8.40
2023-02-06T14:26:09.060Z,8.32
2023-02-06T14:28:46.887Z,8.02
2023-02-06T14:31:27.281Z,8.30
2023-02-06T14:34:14.879Z,8.55
2023-02-06T14:36:58.812Z,7.93
2023-02-06T14:39:45.614Z,8.13
2023-02-06T14:42:19.936Z,8.02
2023-02-06T14:44:51.582Z,8.25
2023-02-06T14:47:23.732Z,8.30
2023-02-06T14:49:52.363Z,8.02
2023-02-06T14:52:23.523Z,8.10
2023-02-06T14:54:52.487Z,8.40
2023-02-06T14:57:25.312Z,8.98
2023-02-06T14:59:56.935Z,9.93
2023-02-06T15:02:29.650Z,9.95
2023-02-06T15:04:58.780Z,10.40
2023-02-06T15:07:32.392Z,13.38
2023-02-06T15:10:07.536Z,10.57
2023-02-06T15:12:37.986Z,10.27
2023-02-06T15:15:18.418Z,12.77
2023-02-06T15:17:59.246Z,12.07
2023-02-06T15:20:34.802Z,10.43
2023-02-06T15:23:17.281Z,10.30
2023-02-06T15:26:04.360Z,9.95
2023-02-06T15:28:36.148Z,9.93
2023-02-06T15:31:05.184Z,10.40
2023-02-06T15:33:36.000Z,10.20
2023-02-06T15:36:05.642Z,9.93
2023-02-06T15:38:34.521Z,10.23
2023-02-06T15:41:05.774Z,10.18
2023-02-06T15:43:35.949Z,10.60
2023-02-06T15:46:06.410Z,9.75
2023-02-06T15:48:37.618Z,10.10
2023-02-06T15:51:22.836Z,9.43
2023-02-06T15:53:52.325Z,10.73
2023-02-06T15:56:25.446Z,9.48
2023-02-06T15:58:59.831Z,10.02
2023-02-06T16:01:31.671Z,9.68
2023-02-06T16:04:05.097Z,10.52
2023-02-06T16:06:33.882Z,9.77
2023-02-06T16:09:06.423Z,9.90
2023-02-06T16:11:55.950Z,9.57
2023-02-06T16:14:34.015Z,9.68
2023-02-06T16:17:05.823Z,9.73
2023-02-06T16:19:47.761Z,9.05
2023-02-06T16:22:24.997Z,10.07
2023-02-06T16:24:55.389Z,9.10
2023-02-06T16:27:27.302Z,9.40
2023-02-06T16:29:58.028Z,9.80
2023-02-06T16:32:29.893Z,9.13
2023-02-06T16:35:01.316Z,9.60
2023-02-06T16:37:31.914Z,9.90
2023-02-06T16:40:00.504Z,9.25
2023-02-06T16:42:35.378Z,8.88
2023-02-06T16:45:22.921Z,9.90
2023-02-06T16:47:51.921Z,9.63
2023-02-06T16:50:21.655Z,9.52
2023-02-06T16:52:52.760Z,9.77
2023-02-06T16:55:23.427Z,9.68
2023-02-06T16:57:54.111Z,9.75
2023-02-06T17:00:26.241Z,9.50
2023-02-06T17:02:55.342Z,9.23
2023-02-06T17:05:25.560Z,9.70
2023-02-06T17:07:55.089Z,9.98
2023-02-06T17:10:27.276Z,9.63
2023-02-06T17:12:56.052Z,9.90
2023-02-06T17:15:26.129Z,9.50
2023-02-06T17:17:55.006Z,10.18
2023-02-06T17:20:32.330Z,9.57
2023-02-06T17:23:01.029Z,9.43
2023-02-06T17:25:29.762Z,9.77
2023-02-06T17:27:58.373Z,9.77
2023-02-06T17:30:28.512Z,9.05
2023-02-06T17:32:57.490Z,9.40
2023-02-06T17:35:26.108Z,9.50
2023-02-06T17:37:54.860Z,9.90
2023-02-06T17:40:25.634Z,9.25
2023-02-06T17:42:54.551Z,10.10
2023-02-06T17:45:23.252Z,9.90
2023-02-06T17:47:53.331Z,9.60
2023-02-06T17:50:23.216Z,9.80
2023-02-06T17:52:52.836Z,9.68
2023-02-06T17:55:21.819Z,9.75
2023-02-06T17:57:50.996Z,10.07
2023-02-06T18:00:23.224Z,9.23
2023-02-06T18:02:54.029Z,10.27
2023-02-06T18:05:23.366Z,9.85
2023-02-06T18:07:52.223Z,10.48
2023-02-06T18:10:21.958Z,10.13
2023-02-06T18:12:50.951Z,10.15
2023-02-06T18:15:19.841Z,10.15
2023-02-06T18:17:48.747Z,10.43
2023-02-06T18:20:19.200Z,10.48
2023-02-06T18:22:48.020Z,10.63
2023-02-06T18:25:16.927Z,10.00
2023-02-06T18:27:46.154Z,10.20
2023-02-06T18:30:15.819Z,10.20
2023-02-06T18:32:44.897Z,10.23
2023-02-06T18:35:14.939Z,10.88
2023-02-06T18:37:45.160Z,10.02
2023-02-06T18:40:14.222Z,9.48
2023-02-06T18:42:52.202Z,10.43
2023-02-06T18:45:21.576Z,9.80
2023-02-06T18:47:51.652Z,10.07
2023-02-06T18:50:23.107Z,10.18
2023-02-06T18:52:53.570Z,10.23
2023-02-06T18:55:22.132Z,10.15
2023-02-06T18:57:50.985Z,10.65
2023-02-06T19:00:21.452Z,10.68
2023-02-06T19:02:50.135Z,10.63
2023-02-06T19:05:19.535Z,10.35
2023-02-06T19:07:50.777Z,10.40
2023-02-06T19:10:21.654Z,9.93
2023-02-06T19:12:50.287Z,10.32
2023-02-06T19:15:19.233Z,10.15
2023-02-06T19:17:49.513Z,9.50
2023-02-06T19:20:18.696Z,10.30
2023-02-06T19:22:47.657Z,10.43
2023-02-06T19:25:16.541Z,9.73
2023-02-06T19:27:46.750Z,10.18
2023-02-06T19:30:15.860Z,9.93
2023-02-06T19:32:44.732Z,9.80
2023-02-06T19:35:13.512Z,9.77
2023-02-06T19:37:42.317Z,10.30
2023-02-06T19:40:12.195Z,10.52
2023-02-06T19:42:41.578Z,11.63
2023-02-06T19:45:11.701Z,10.85
2023-02-06T19:47:40.296Z,11.45
2023-02-06T19:50:10.827Z,11.88
2023-02-06T19:52:40.639Z,10.50
2023-02-06T19:55:10.235Z,11.38
2023-02-06T19:57:39.721Z,10.75
2023-02-06T20:00:11.916Z,11.65
2023-02-06T20:02:40.600Z,11.68
2023-02-06T20:05:10.352Z,12.07
2023-02-06T20:07:39.006Z,12.57
2023-02-06T20:10:08.719Z,11.23
2023-02-06T20:12:37.390Z,12.75
2023-02-06T20:15:07.016Z,12.35
2023-02-06T20:17:37.095Z,12.57
2023-02-06T20:20:06.899Z,14.57
2023-02-06T20:22:35.633Z,13.48
2023-02-06T20:25:04.433Z,14.38
2023-02-06T20:27:33.000Z,13.52
2023-02-06T20:30:01.719Z,14.15
2023-02-06T20:32:30.959Z,13.95
2023-02-06T20:35:01.301Z,14.77
2023-02-06T20:37:30.308Z,14.98
2023-02-06T20:40:00.838Z,15.95
2023-02-06T20:42:32.234Z,15.90
2023-02-06T20:45:01.052Z,16.30
2023-02-06T20:47:29.738Z,16.08
2023-02-06T20:50:00.672Z,18.27
2023-02-06T20:52:31.172Z,20.60
2023-02-06T20:54:59.931Z,20.95
2023-02-06T20:57:28.572Z,23.30
2023-02-06T20:59:57.678Z,23.70
2023-02-06T21:02:28.404Z,21.75
2023-02-06T21:04:57.426Z,23.05
2023-02-06T21:07:26.855Z,22.20
2023-02-06T21:09:57.469Z,22.50
2023-02-06T21:12:30.463Z,22.60
2023-02-06T21:14:59.465Z,22.25
2023-02-06T21:17:28.426Z,23.60
2023-02-06T21:19:57.219Z,24.15
2023-02-06T21:22:26.081Z,22.40
2023-02-06T21:24:56.225Z,23.80
2023-02-06T21:27:25.082Z,23.10
2023-02-06T21:29:54.142Z,22.67
2023-02-06T21:32:22.747Z,23.83
2023-02-06T21:34:51.803Z,22.85
2023-02-06T21:37:22.839Z,24.27
2023-02-06T21:39:51.527Z,24.27
2023-02-06T21:42:26.284Z,23.63
2023-02-06T21:44:54.998Z,23.50
2023-02-06T21:47:23.884Z,23.33
2023-02-06T21:49:52.781Z,24.25
2023-02-06T21:52:21.586Z,25.50
2023-02-06T21:54:50.306Z,24.13
2023-02-06T21:57:19.001Z,24.33
2023-02-06T21:59:49.091Z,24.52
2023-02-06T22:02:17.877Z,24.63
2023-02-06T22:04:47.155Z,24.77
2023-02-06T22:07:15.795Z,24.95
2023-02-06T22:09:44.857Z,25.17
2023-02-06T22:12:13.563Z,25.90
2023-02-06T22:14:42.340Z,25.00
2023-02-06T22:17:13.282Z,25.10
2023-02-06T22:19:42.126Z,26.50
2023-02-06T22:22:12.799Z,26.13
2023-02-06T22:24:41.604Z,26.55
2023-02-06T22:27:10.336Z,27.90
2023-02-06T22:29:39.182Z,27.08
2023-02-06T22:32:07.877Z,27.15
2023-02-06T22:34:37.814Z,27.55
2023-02-06T22:37:06.575Z,27.25
2023-02-06T22:39:35.197Z,29.30
2023-02-06T22:42:04.159Z,27.30
2023-02-06T22:44:33.716Z,27.35
2023-02-06T22:47:02.892Z,28.58
2023-02-06T22:49:31.789Z,28.27
2023-02-06T22:52:02.383Z,28.88
2023-02-06T22:54:31.309Z,28.83
2023-02-06T22:57:00.184Z,29.10
2023-02-06T22:59:29.183Z,29.50
2023-02-06T23:01:59.088Z,29.58
2023-02-06T23:04:29.353Z,29.60
2023-02-06T23:06:58.100Z,29.58
2023-02-06T23:09:31.656Z,29.65
2023-02-06T23:12:01.156Z,29.90
2023-02-06T23:14:31.317Z,30.10
2023-02-06T23:17:00.697Z,31.95
2023-02-06T23:19:29.547Z,30.92
2023-02-06T23:21:58.292Z,31.83
2023-02-06T23:24:28.810Z,32.08
2023-02-06T23:26:57.570Z,32.03
2023-02-06T23:29:26.361Z,31.38
2023-02-06T23:31:55.919Z,31.38
2023-02-06T23:34:24.753Z,30.85
2023-02-06T23:36:53.478Z,31.05
2023-02-06T23:39:22.270Z,30.55
2023-02-06T23:41:52.284Z,30.50
2023-02-06T23:44:21.972Z,30.75
2023-02-06T23:46:51.086Z,30.17
2023-02-06T23:49:19.623Z,31.30
2023-02-06T23:51:48.572Z,30.75
2023-02-06T23:54:17.278Z,32.47
2023-02-06T23:56:45.890Z,31.52
2023-02-06T23:59:16.436Z,30.50
